createdAt,value
2023-05-21T00:02:00.141Z,3.80
2023-05-21T00:04:29.797Z,4.10
2023-05-21T00:06:58.824Z,3.80
2023-05-21T00:09:25.833Z,4.20
2023-05-21T00:11:52.974Z,4.40
2023-05-21T00:14:20.112Z,4.70
2023-05-21T00:16:47.276Z,4.40
2023-05-21T00:19:14.397Z,4.50
2023-05-21T00:21:41.449Z,4.80
2023-05-21T00:24:08.923Z,4.40
2023-05-21T00:26:35.986Z,5.90
2023-05-21T00:29:03.345Z,6.40
2023-05-21T00:31:31.111Z,8.90
2023-05-21T00:33:58.309Z,11.50
2023-05-21T00:36:25.400Z,8.70
2023-05-21T00:38:52.419Z,7.50
2023-05-21T00:41:19.385Z,7.60
2023-05-21T00:43:46.765Z,6.30
2023-05-21T00:46:19.682Z,6.80
2023-05-21T00:48:47.423Z,6.00
2023-05-21T00:51:15.005Z,4.30
2023-05-21T00:53:42.089Z,4.40
2023-05-21T00:56:09.202Z,4.50
2023-05-21T00:58:36.388Z,4.90
2023-05-21T01:01:03.845Z,4.70
2023-05-21T01:03:38.735Z,4.50
2023-05-21T01:06:08.134Z,4.80
2023-05-21T01:08:36.368Z,4.40
2023-05-21T01:11:04.085Z,4.80
2023-05-21T01:13:31.567Z,4.70
2023-05-21T01:15:59.331Z,3.60
2023-05-21T01:18:26.443Z,3.70
2023-05-21T01:20:53.750Z,4.20
2023-05-21T01:23:21.133Z,4.20
2023-05-21T01:25:48.271Z,4.20
2023-05-21T01:28:15.286Z,4.50
2023-05-21T01:30:42.604Z,4.40
2023-05-21T01:33:15.415Z,4.00
2023-05-21T01:35:46.716Z,4.50
2023-05-21T01:38:27.544Z,3.60
2023-05-21T01:41:05.829Z,3.90
2023-05-21T01:43:34.898Z,3.70
2023-05-21T01:46:02.144Z,3.80
2023-05-21T01:48:30.446Z,3.90
2023-05-21T01:51:02.168Z,4.20
2023-05-21T01:53:29.375Z,5.50
2023-05-21T01:55:56.455Z,5.10
2023-05-21T01:58:24.336Z,4.50
2023-05-21T02:00:52.030Z,4.20
2023-05-21T02:03:20.145Z,3.20
2023-05-21T02:05:47.401Z,3.50
2023-05-21T02:08:15.433Z,3.50
2023-05-21T02:10:42.754Z,3.40
2023-05-21T02:13:10.050Z,3.70
2023-05-21T02:15:39.042Z,4.30
2023-05-21T02:18:06.257Z,4.00
2023-05-21T02:20:33.560Z,4.30
2023-05-21T02:23:00.904Z,4.10
2023-05-21T02:25:28.024Z,3.90
2023-05-21T02:27:57.182Z,3.30
2023-05-21T02:30:24.433Z,3.10
2023-05-21T02:32:53.423Z,3.20
2023-05-21T02:35:20.716Z,3.80
2023-05-21T02:37:49.129Z,3.60
2023-05-21T02:40:16.343Z,3.70
2023-05-21T02:42:43.530Z,3.70
2023-05-21T02:45:12.598Z,3.80
2023-05-21T02:47:41.736Z,3.90
2023-05-21T02:50:09.320Z,3.30
2023-05-21T02:52:42.978Z,3.70
2023-05-21T02:55:10.132Z,3.30
2023-05-21T02:57:37.209Z,3.70
2023-05-21T03:00:06.211Z,4.00
2023-05-21T03:02:34.578Z,4.00
2023-05-21T03:05:01.644Z,3.90
2023-05-21T03:07:29.023Z,4.00
2023-05-21T03:09:56.387Z,3.90
2023-05-21T03:12:23.840Z,3.20
2023-05-21T03:14:51.597Z,2.90
2023-05-21T03:17:20.688Z,3.10
2023-05-21T03:19:49.236Z,3.20
2023-05-21T03:22:17.352Z,3.40
2023-05-21T03:24:46.468Z,3.20
2023-05-21T03:27:13.904Z,3.80
2023-05-21T03:29:41.206Z,3.60
2023-05-21T03:32:08.855Z,3.70
2023-05-21T03:34:36.247Z,3.00
2023-05-21T03:37:06.010Z,2.90
2023-05-21T03:39:33.766Z,3.20
2023-05-21T03:42:00.897Z,3.00
2023-05-21T03:44:35.712Z,3.30
2023-05-21T03:47:38.162Z,3.20
2023-05-21T03:50:07.934Z,3.30
2023-05-21T03:52:35.753Z,3.30
2023-05-21T03:55:02.964Z,3.30
2023-05-21T03:57:30.547Z,3.30
2023-05-21T03:59:59.124Z,3.70
2023-05-21T04:02:27.533Z,3.90
2023-05-21T04:04:56.040Z,4.10
2023-05-21T04:07:23.961Z,4.00
2023-05-21T04:09:51.329Z,3.40
2023-05-21T04:12:20.375Z,3.10
2023-05-21T04:14:47.682Z,3.40
2023-05-21T04:17:14.746Z,3.40
2023-05-21T04:19:42.158Z,3.30
2023-05-21T04:22:10.593Z,3.90
2023-05-21T04:24:38.762Z,3.30
2023-05-21T04:27:16.811Z,3.10
2023-05-21T04:29:44.711Z,3.40
2023-05-21T04:32:12.057Z,3.00
2023-05-21T04:34:42.977Z,3.70
2023-05-21T04:37:10.286Z,3.20
2023-05-21T04:39:37.278Z,3.30
2023-05-21T04:42:04.626Z,3.90
2023-05-21T04:44:31.699Z,4.10
2023-05-21T04:47:00.677Z,3.90
2023-05-21T04:49:27.836Z,3.80
2023-05-21T04:51:55.222Z,3.50
2023-05-21T04:54:22.946Z,3.10
2023-05-21T04:56:50.276Z,3.70
2023-05-21T04:59:18.729Z,3.60
2023-05-21T05:01:46.224Z,3.10
2023-05-21T05:04:13.244Z,3.30
2023-05-21T05:06:40.767Z,3.00
2023-05-21T05:09:08.803Z,3.60
2023-05-21T05:11:36.079Z,3.50
2023-05-21T05:14:03.077Z,3.50
2023-05-21T05:16:31.215Z,3.20
2023-05-21T05:18:58.490Z,3.20
2023-05-21T05:21:26.398Z,3.30
2023-05-21T05:23:53.467Z,3.00
2023-05-21T05:26:23.714Z,2.80
2023-05-21T05:28:50.787Z,3.30
2023-05-21T05:31:18.764Z,3.20
2023-05-21T05:33:46.413Z,2.90
2023-05-21T05:36:13.657Z,3.10
2023-05-21T05:38:41.545Z,2.70
2023-05-21T05:41:08.711Z,3.00
2023-05-21T05:43:36.153Z,2.80
2023-05-21T05:46:03.928Z,3.00
2023-05-21T05:48:31.322Z,3.30
2023-05-21T05:50:58.586Z,3.00
2023-05-21T05:53:26.121Z,3.00
2023-05-21T05:55:53.303Z,3.30
2023-05-21T05:58:20.826Z,3.30
2023-05-21T06:00:59.632Z,3.00
2023-05-21T06:03:27.222Z,2.80
2023-05-21T06:05:54.385Z,3.30
2023-05-21T06:08:21.452Z,3.10
2023-05-21T06:10:48.654Z,3.00
2023-05-21T06:13:16.045Z,3.10
2023-05-21T06:15:43.496Z,3.00
2023-05-21T06:18:11.584Z,3.10
2023-05-21T06:20:38.728Z,3.70
2023-05-21T06:23:07.472Z,3.50
2023-05-21T06:25:35.549Z,3.00
2023-05-21T06:28:03.171Z,3.30
2023-05-21T06:30:30.947Z,3.50
2023-05-21T06:32:59.711Z,3.20
2023-05-21T06:35:26.857Z,4.30
2023-05-21T06:37:53.985Z,3.50
2023-05-21T06:40:21.783Z,3.30
2023-05-21T06:42:49.657Z,3.90
2023-05-21T06:45:23.354Z,2.90
2023-05-21T06:50:20.409Z,3.90
2023-05-21T06:52:47.559Z,3.00
2023-05-21T06:55:14.748Z,3.80
2023-05-21T06:58:00.993Z,3.50
2023-05-21T07:00:28.191Z,3.60
2023-05-21T07:02:55.274Z,3.30
2023-05-21T07:05:22.445Z,3.20
2023-05-21T07:07:49.856Z,3.00
2023-05-21T07:10:17.238Z,3.00
2023-05-21T07:12:44.417Z,3.80
2023-05-21T07:15:11.837Z,3.00
2023-05-21T07:17:39.442Z,2.90
2023-05-21T07:20:07.905Z,2.80
2023-05-21T07:22:41.129Z,2.90
2023-05-21T07:25:09.081Z,2.60
2023-05-21T07:27:36.444Z,2.60
2023-05-21T07:30:04.146Z,2.80
2023-05-21T07:32:32.543Z,2.40
2023-05-21T07:35:02.163Z,2.40
2023-05-21T07:37:30.866Z,2.50
2023-05-21T07:40:01.246Z,2.60
2023-05-21T07:42:30.987Z,2.80
2023-05-21T07:44:58.755Z,2.90
2023-05-21T07:47:26.527Z,2.50
2023-05-21T07:49:53.742Z,2.50
2023-05-21T07:52:21.104Z,2.50
2023-05-21T07:54:48.108Z,2.60
2023-05-21T07:57:15.458Z,2.50
2023-05-21T07:59:57.282Z,2.30
2023-05-21T08:02:24.510Z,2.30
2023-05-21T08:05:11.814Z,2.50
2023-05-21T08:07:39.036Z,2.10
2023-05-21T08:10:06.948Z,2.50
2023-05-21T08:12:34.610Z,2.70
2023-05-21T08:15:01.987Z,2.30
2023-05-21T08:17:30.270Z,2.20
2023-05-21T08:19:57.971Z,2.60
2023-05-21T08:22:25.064Z,2.40
2023-05-21T08:24:52.654Z,3.00
2023-05-21T08:27:19.798Z,2.60
2023-05-21T08:29:47.084Z,2.60
2023-05-21T08:32:14.183Z,2.70
2023-05-21T08:34:41.605Z,2.70
2023-05-21T08:37:41.135Z,2.50
2023-05-21T08:40:32.424Z,2.60
2023-05-21T08:42:59.504Z,2.50
2023-05-21T08:45:39.028Z,2.30
2023-05-21T08:48:06.502Z,2.50
2023-05-21T08:50:34.122Z,2.10
2023-05-21T08:53:12.765Z,2.20
2023-05-21T08:55:52.712Z,2.40
2023-05-21T08:58:20.356Z,2.10
2023-05-21T09:00:47.493Z,2.30
2023-05-21T09:03:17.670Z,2.80
2023-05-21T09:05:45.855Z,2.50
2023-05-21T09:08:17.466Z,2.20
2023-05-21T09:11:16.919Z,2.30
2023-05-21T09:13:48.285Z,4.00
2023-05-21T09:16:21.789Z,2.30
2023-05-21T09:18:49.266Z,2.10
2023-05-21T09:21:24.602Z,2.30
2023-05-21T09:23:55.295Z,2.30
2023-05-21T09:26:22.538Z,3.50
2023-05-21T09:28:51.534Z,2.70
2023-05-21T09:31:19.619Z,2.50
2023-05-21T09:33:49.654Z,2.70
2023-05-21T09:36:20.520Z,2.40
2023-05-21T09:38:48.953Z,2.30
2023-05-21T09:41:19.527Z,2.60
2023-05-21T09:43:48.701Z,2.20
2023-05-21T09:46:15.856Z,2.40
2023-05-21T09:48:43.820Z,2.40
2023-05-21T09:51:15.260Z,2.80
2023-05-21T09:53:58.162Z,2.50
2023-05-21T09:56:29.363Z,2.40
2023-05-21T09:58:57.785Z,2.80
2023-05-21T10:01:25.319Z,2.70
2023-05-21T10:03:59.401Z,2.90
2023-05-21T10:06:31.180Z,2.30
2023-05-21T10:09:05.786Z,2.60
2023-05-21T10:11:33.407Z,2.50
2023-05-21T10:14:13.307Z,2.00
2023-05-21T10:16:40.506Z,5.80
2023-05-21T10:19:11.213Z,2.40
2023-05-21T10:21:39.748Z,5.00
2023-05-21T10:24:07.747Z,2.30
2023-05-21T10:26:34.851Z,2.00
2023-05-21T10:29:01.889Z,2.30
2023-05-21T10:31:29.247Z,2.70
2023-05-21T10:33:56.477Z,2.10
2023-05-21T10:36:26.505Z,2.20
2023-05-21T10:38:53.492Z,2.30
2023-05-21T10:41:21.209Z,2.20
2023-05-21T10:44:06.749Z,2.40
2023-05-21T10:47:12.095Z,2.70
2023-05-21T10:49:59.513Z,2.30
2023-05-21T10:52:36.046Z,2.90
2023-05-21T10:55:24.825Z,2.30
2023-05-21T10:58:09.867Z,2.20
2023-05-21T11:00:37.740Z,2.10
2023-05-21T11:03:05.091Z,2.50
2023-05-21T11:05:40.335Z,2.60
2023-05-21T11:08:21.189Z,2.30
2023-05-21T11:10:55.743Z,2.40
2023-05-21T11:13:23.706Z,2.50
2023-05-21T11:16:01.493Z,2.30
2023-05-21T11:18:38.065Z,2.50
2023-05-21T11:21:06.357Z,1.80
2023-05-21T11:23:51.685Z,1.90
2023-05-21T11:26:19.311Z,2.00
2023-05-21T11:28:46.904Z,2.00
2023-05-21T11:31:22.578Z,2.50
2023-05-21T11:34:14.469Z,2.30
2023-05-21T11:36:42.457Z,3.00
2023-05-21T11:39:22.666Z,2.20
2023-05-21T11:42:04.475Z,2.10
2023-05-21T11:44:45.547Z,2.20
2023-05-21T11:47:17.873Z,2.20
2023-05-21T11:49:45.298Z,1.80
2023-05-21T11:52:12.827Z,2.00
2023-05-21T11:54:42.034Z,2.20
2023-05-21T11:57:09.379Z,2.30
2023-05-21T11:59:36.724Z,2.50
2023-05-21T12:02:04.218Z,2.20
2023-05-21T12:04:38.565Z,2.30
2023-05-21T12:07:09.462Z,2.20
2023-05-21T12:09:43.362Z,1.90
2023-05-21T12:12:11.425Z,2.20
2023-05-21T12:14:38.614Z,2.00
2023-05-21T12:17:07.001Z,2.10
2023-05-21T12:19:35.689Z,2.10
2023-05-21T12:22:06.355Z,2.60
2023-05-21T12:24:34.159Z,2.10
2023-05-21T12:27:02.479Z,1.90
2023-05-21T12:29:32.508Z,2.30
2023-05-21T12:32:00.375Z,2.30
2023-05-21T12:34:40.143Z,2.30
2023-05-21T12:37:07.906Z,2.40
2023-05-21T12:39:43.348Z,2.30
2023-05-21T12:42:10.486Z,2.50
2023-05-21T12:44:46.335Z,2.30
2023-05-21T12:47:13.860Z,1.90
2023-05-21T12:49:42.286Z,1.90
2023-05-21T12:52:11.225Z,2.10
2023-05-21T12:54:39.753Z,2.10
2023-05-21T12:57:17.719Z,2.20
2023-05-21T12:59:48.426Z,2.20
2023-05-21T13:02:17.146Z,2.50
2023-05-21T13:04:44.182Z,2.00
2023-05-21T13:07:11.234Z,2.20
2023-05-21T13:09:38.216Z,2.10
2023-05-21T13:12:05.789Z,2.40
2023-05-21T13:14:34.136Z,2.60
2023-05-21T13:17:01.254Z,2.10
2023-05-21T13:19:29.249Z,2.20
2023-05-21T13:21:56.801Z,2.10
2023-05-21T13:24:24.039Z,1.90
2023-05-21T13:26:51.129Z,2.00
2023-05-21T13:29:18.833Z,2.30
2023-05-21T13:31:45.832Z,2.10
2023-05-21T13:34:12.997Z,2.40
2023-05-21T13:36:40.911Z,2.10
2023-05-21T13:39:08.012Z,2.20
2023-05-21T13:41:35.137Z,2.20
2023-05-21T13:44:02.556Z,2.20
2023-05-21T13:46:30.515Z,2.20
2023-05-21T13:48:57.662Z,2.10
2023-05-21T13:51:38.007Z,2.50
2023-05-21T13:54:05.928Z,1.90
2023-05-21T13:56:34.191Z,2.00
2023-05-21T13:59:01.619Z,2.00
2023-05-21T14:01:29.099Z,1.90
2023-05-21T14:03:56.356Z,2.20
2023-05-21T14:06:23.314Z,2.30
2023-05-21T14:08:50.501Z,2.10
2023-05-21T14:11:19.076Z,2.10
2023-05-21T14:13:47.032Z,2.00
2023-05-21T14:16:14.118Z,2.10
2023-05-21T14:18:41.668Z,2.10
2023-05-21T14:21:08.872Z,2.40
2023-05-21T14:23:36.121Z,2.20
2023-05-21T14:26:03.304Z,2.10
2023-05-21T14:28:30.473Z,2.00
2023-05-21T14:30:57.501Z,2.40
2023-05-21T14:33:24.455Z,2.20
2023-05-21T14:35:51.478Z,2.10
2023-05-21T14:38:18.589Z,2.10
2023-05-21T14:40:45.692Z,2.60
2023-05-21T14:43:12.689Z,3.30
2023-05-21T14:45:40.015Z,2.00
2023-05-21T14:48:11.870Z,3.00
2023-05-21T14:50:39.084Z,2.60
2023-05-21T14:53:07.063Z,2.20
2023-05-21T14:55:36.884Z,2.50
2023-05-21T15:00:32.400Z,2.40
2023-05-21T15:02:59.666Z,2.30
2023-05-21T15:05:28.155Z,2.40
2023-05-21T15:07:58.868Z,2.50
2023-05-21T15:10:26.591Z,2.70
2023-05-21T15:12:53.583Z,2.10
2023-05-21T15:15:21.293Z,2.50
2023-05-21T15:18:29.344Z,2.50
2023-05-21T15:20:56.346Z,2.50
2023-05-21T15:23:23.810Z,2.00
2023-05-21T15:25:50.866Z,2.90
2023-05-21T15:28:17.820Z,2.70
2023-05-21T15:30:44.890Z,2.40
2023-05-21T15:33:12.125Z,2.40
2023-05-21T15:35:39.643Z,2.80
2023-05-21T15:38:07.102Z,2.50
2023-05-21T15:40:34.238Z,2.50
2023-05-21T15:43:01.414Z,2.60
2023-05-21T15:45:28.434Z,2.70
2023-05-21T15:47:55.638Z,2.40
2023-05-21T15:50:22.763Z,2.70
2023-05-21T15:52:51.662Z,2.70
2023-05-21T15:55:20.635Z,2.50
2023-05-21T15:57:47.809Z,2.60
2023-05-21T16:00:15.204Z,2.50
2023-05-21T16:02:43.036Z,2.60
2023-05-21T16:05:10.401Z,2.40
2023-05-21T16:07:38.361Z,2.40
2023-05-21T16:10:06.628Z,2.70
2023-05-21T16:12:34.001Z,2.30
2023-05-21T16:15:01.134Z,2.50
2023-05-21T16:17:28.165Z,3.60
2023-05-21T16:19:55.234Z,2.60
2023-05-21T16:22:23.809Z,4.00
2023-05-21T16:24:50.955Z,2.50
2023-05-21T16:27:18.097Z,2.80
2023-05-21T16:29:45.234Z,3.20
2023-05-21T16:32:14.177Z,2.80
2023-05-21T16:34:41.477Z,2.80
2023-05-21T16:37:09.839Z,2.50
2023-05-21T16:39:37.817Z,2.30
2023-05-21T16:42:04.910Z,2.30
2023-05-21T16:44:32.503Z,2.30
2023-05-21T16:46:59.662Z,2.60
2023-05-21T16:49:27.268Z,3.20
2023-05-21T16:51:54.510Z,2.60
2023-05-21T16:54:21.696Z,2.20
2023-05-21T16:56:48.887Z,2.50
2023-05-21T16:59:16.259Z,2.50
2023-05-21T17:01:43.301Z,3.10
2023-05-21T17:04:11.003Z,2.50
2023-05-21T17:06:37.920Z,2.60
2023-05-21T17:09:04.922Z,3.20
2023-05-21T17:11:32.210Z,3.30
2023-05-21T17:13:59.332Z,2.80
2023-05-21T17:16:26.755Z,2.50
2023-05-21T17:18:53.897Z,4.20
2023-05-21T17:21:21.356Z,2.80
2023-05-21T17:23:48.281Z,2.70
2023-05-21T17:26:15.284Z,2.80
2023-05-21T17:28:43.199Z,2.80
2023-05-21T17:31:10.876Z,3.00
2023-05-21T17:33:39.358Z,2.70
2023-05-21T17:36:06.835Z,2.70
2023-05-21T17:38:33.938Z,2.50
2023-05-21T17:41:01.030Z,2.60
2023-05-21T17:43:28.092Z,2.60
2023-05-21T17:45:55.086Z,2.40
2023-05-21T17:48:22.105Z,2.60
2023-05-21T17:50:49.198Z,2.30
2023-05-21T17:53:16.703Z,2.10
2023-05-21T17:55:44.146Z,2.50
2023-05-21T17:58:11.210Z,2.10
2023-05-21T18:00:38.371Z,2.60
2023-05-21T18:03:05.695Z,2.40
2023-05-21T18:05:32.822Z,2.60
2023-05-21T18:08:01.311Z,2.20
2023-05-21T18:10:28.793Z,2.60
2023-05-21T18:12:55.875Z,2.70
2023-05-21T18:15:22.997Z,2.70
2023-05-21T18:17:50.023Z,2.50
2023-05-21T18:20:17.237Z,2.80
2023-05-21T18:22:45.594Z,2.70
2023-05-21T18:25:12.656Z,2.80
2023-05-21T18:27:39.787Z,3.00
2023-05-21T18:30:08.395Z,2.40
2023-05-21T18:32:38.689Z,2.50
2023-05-21T18:35:11.969Z,2.70
2023-05-21T18:37:42.652Z,2.70
2023-05-21T18:40:10.942Z,2.60
2023-05-21T18:42:38.191Z,2.60
2023-05-21T18:45:09.219Z,2.60
2023-05-21T18:47:36.492Z,2.70
2023-05-21T18:50:03.816Z,2.70
2023-05-21T18:52:31.137Z,2.80
2023-05-21T18:54:58.236Z,3.10
2023-05-21T18:57:25.225Z,2.60
2023-05-21T18:59:52.286Z,2.90
2023-05-21T19:02:19.407Z,2.60
2023-05-21T19:04:46.547Z,3.10
2023-05-21T19:07:13.780Z,2.80
2023-05-21T19:09:40.802Z,2.80
2023-05-21T19:12:07.998Z,2.70
2023-05-21T19:14:35.249Z,3.00
2023-05-21T19:17:02.739Z,3.30
2023-05-21T19:19:29.970Z,3.40
2023-05-21T19:21:57.292Z,2.80
2023-05-21T19:24:24.330Z,2.80
2023-05-21T19:26:51.388Z,2.70
2023-05-21T19:29:18.352Z,2.70
2023-05-21T19:31:45.460Z,2.90
2023-05-21T19:34:12.526Z,2.90
2023-05-21T19:36:52.345Z,3.00
2023-05-21T19:39:20.479Z,2.60
2023-05-21T19:41:47.483Z,3.80
2023-05-21T19:44:14.677Z,3.00
2023-05-21T19:46:41.669Z,3.20
2023-05-21T19:49:10.649Z,3.10
2023-05-21T19:51:37.657Z,3.10
2023-05-21T19:54:04.661Z,3.20
2023-05-21T19:56:32.396Z,2.80
2023-05-21T19:58:59.378Z,3.00
2023-05-21T20:01:26.751Z,3.30
2023-05-21T20:03:53.803Z,3.40
2023-05-21T20:06:21.085Z,3.30
2023-05-21T20:08:48.286Z,3.40
2023-05-21T20:11:15.600Z,3.20
2023-05-21T20:13:42.619Z,3.30
2023-05-21T20:16:10.692Z,3.80
2023-05-21T20:18:37.754Z,3.20
2023-05-21T20:21:06.243Z,3.50
2023-05-21T20:23:35.024Z,3.50
2023-05-21T20:26:02.079Z,3.50
2023-05-21T20:28:30.119Z,3.10
2023-05-21T20:31:02.640Z,3.70
2023-05-21T20:33:31.437Z,3.40
2023-05-21T20:35:58.548Z,3.60
2023-05-21T20:38:28.585Z,3.90
2023-05-21T20:40:55.864Z,3.50
2023-05-21T20:43:24.501Z,3.50
2023-05-21T20:45:59.593Z,3.40
2023-05-21T20:48:29.828Z,3.40
2023-05-21T20:50:57.604Z,3.80
2023-05-21T20:53:25.119Z,3.50
2023-05-21T20:55:54.790Z,3.60
2023-05-21T20:58:23.860Z,3.80
2023-05-21T21:00:50.957Z,3.40
2023-05-21T21:03:18.510Z,3.80
2023-05-21T21:05:45.610Z,3.50
2023-05-21T21:08:12.793Z,3.30
2023-05-21T21:10:42.442Z,3.40
2023-05-21T21:13:09.787Z,3.30
2023-05-21T21:15:37.130Z,3.10
2023-05-21T21:18:04.288Z,3.40
2023-05-21T21:20:32.316Z,3.40
2023-05-21T21:22:59.278Z,3.60
2023-05-21T21:25:26.363Z,3.70
2023-05-21T21:27:53.567Z,3.70
2023-05-21T21:30:20.765Z,3.30
2023-05-21T21:32:49.537Z,3.60
2023-05-21T21:35:17.121Z,3.40
2023-05-21T21:37:44.173Z,3.60
2023-05-21T21:40:12.734Z,4.50
2023-05-21T21:42:40.060Z,5.50
2023-05-21T21:45:07.970Z,6.20
2023-05-21T21:47:35.463Z,6.20
2023-05-21T21:50:02.463Z,6.60
2023-05-21T21:52:29.681Z,6.60
2023-05-21T21:54:56.979Z,5.80
2023-05-21T21:57:24.343Z,5.30
2023-05-21T21:59:51.433Z,4.80
2023-05-21T22:02:18.728Z,4.90
2023-05-21T22:04:46.617Z,4.60
2023-05-21T22:07:17.008Z,4.50
2023-05-21T22:09:45.182Z,5.10
2023-05-21T22:12:16.810Z,4.20
2023-05-21T22:14:43.880Z,4.40
2023-05-21T22:17:11.002Z,4.70
2023-05-21T22:19:38.284Z,4.10
2023-05-21T22:22:05.509Z,4.50
2023-05-21T22:24:33.450Z,4.60
2023-05-21T22:27:01.362Z,4.80
2023-05-21T22:29:28.504Z,4.60
2023-05-21T22:31:55.607Z,4.70
2023-05-21T22:34:25.447Z,4.30
2023-05-21T22:36:52.736Z,4.60
2023-05-21T22:39:19.674Z,4.90
2023-05-21T22:41:46.937Z,4.90
2023-05-21T22:44:13.956Z,4.70
2023-05-21T22:46:42.263Z,4.80
2023-05-21T22:49:12.177Z,4.70
2023-05-21T22:51:39.340Z,4.90
2023-05-21T22:54:06.866Z,4.30
2023-05-21T22:56:35.308Z,4.80
2023-05-21T22:59:02.373Z,4.80
2023-05-21T23:01:29.690Z,5.20
2023-05-21T23:03:57.021Z,4.80
2023-05-21T23:06:24.133Z,5.50
2023-05-21T23:08:51.878Z,5.00
2023-05-21T23:11:18.876Z,5.10
2023-05-21T23:13:46.585Z,5.10
2023-05-21T23:16:13.887Z,5.10
2023-05-21T23:18:41.069Z,4.90
2023-05-21T23:21:08.294Z,5.30
2023-05-21T23:23:35.376Z,5.40
2023-05-21T23:26:02.380Z,4.90
2023-05-21T23:28:29.638Z,5.20
2023-05-21T23:30:57.023Z,4.90
2023-05-21T23:33:24.162Z,4.30
2023-05-21T23:35:51.468Z,4.70
2023-05-21T23:38:18.430Z,4.80
2023-05-21T23:40:45.723Z,4.30
2023-05-21T23:43:12.905Z,4.10
2023-05-21T23:45:41.339Z,4.70
2023-05-21T23:48:08.470Z,4.70
2023-05-21T23:50:36.669Z,4.70
2023-05-21T23:53:03.766Z,4.50
2023-05-21T23:55:31.427Z,4.90
2023-05-21T23:57:58.431Z,5.10
